createdAt,value
2022-10-15T00:03:41.129Z,16.70
2022-10-15T00:07:42.337Z,16.80
2022-10-15T00:11:43.452Z,16.60
2022-10-15T00:15:44.546Z,16.70
2022-10-15T00:19:45.660Z,16.60
2022-10-15T00:23:48.347Z,16.70
2022-10-15T00:27:49.554Z,16.80
2022-10-15T00:31:50.633Z,16.90
2022-10-15T00:36:03.050Z,16.80
2022-10-15T00:40:05.439Z,16.70
2022-10-15T00:44:28.719Z,16.90
2022-10-15T00:48:31.223Z,17.00
2022-10-15T00:52:45.276Z,16.80
2022-10-15T00:56:48.664Z,16.70
2022-10-15T01:00:49.807Z,16.50
2022-10-15T01:04:51.259Z,16.70
2022-10-15T01:08:52.734Z,16.70
2022-10-15T01:13:13.141Z,16.80
2022-10-15T01:17:38.072Z,16.70
2022-10-15T01:21:45.590Z,16.90
2022-10-15T01:25:56.141Z,17.00
2022-10-15T01:30:16.024Z,16.90
2022-10-15T01:34:24.004Z,16.90
2022-10-15T01:38:31.540Z,16.80
2022-10-15T01:42:36.551Z,16.90
2022-10-15T01:46:54.265Z,16.80
2022-10-15T01:50:59.197Z,17.00
2022-10-15T01:55:02.369Z,17.10
2022-10-15T01:59:05.999Z,16.90
2022-10-15T02:03:07.107Z,17.00
2022-10-15T02:07:14.683Z,17.00
2022-10-15T02:11:17.380Z,16.80
2022-10-15T02:15:33.987Z,17.00
2022-10-15T02:24:11.116Z,17.10
2022-10-15T02:28:14.812Z,16.90
2022-10-15T02:32:19.320Z,16.70
2022-10-15T02:36:21.313Z,16.80
2022-10-15T02:40:26.606Z,16.90
2022-10-15T02:44:27.791Z,17.00
2022-10-15T02:48:28.972Z,17.10
2022-10-15T02:52:30.164Z,17.00
2022-10-15T02:56:31.618Z,17.10
2022-10-15T03:00:32.963Z,17.20
2022-10-15T03:04:34.100Z,17.10
2022-10-15T03:08:35.590Z,17.20
2022-10-15T03:12:36.763Z,17.20
2022-10-15T03:16:37.948Z,17.30
2022-10-15T03:20:39.020Z,17.20
2022-10-15T03:24:40.247Z,17.10
2022-10-15T03:28:41.597Z,17.10
2022-10-15T03:36:44.583Z,17.20
2022-10-15T03:40:45.829Z,17.20
2022-10-15T03:44:47.195Z,17.10
2022-10-15T03:48:49.901Z,17.20
2022-10-15T03:52:51.057Z,17.20
2022-10-15T03:56:52.267Z,17.10
2022-10-15T04:00:53.505Z,17.10
2022-10-15T04:04:54.724Z,17.10
2022-10-15T04:08:55.924Z,17.20
2022-10-15T04:12:57.125Z,17.10
2022-10-15T04:16:58.401Z,17.10
2022-10-15T04:21:00.822Z,16.90
2022-10-15T04:25:01.899Z,17.10
2022-10-15T04:29:03.318Z,17.10
2022-10-15T04:33:04.486Z,16.90
2022-10-15T04:37:05.572Z,17.00
2022-10-15T04:41:09.393Z,17.10
2022-10-15T04:45:10.586Z,17.10
2022-10-15T04:49:11.979Z,17.20
2022-10-15T04:53:13.227Z,17.10
2022-10-15T04:57:14.848Z,17.10
2022-10-15T05:01:19.178Z,17.10
2022-10-15T05:05:20.267Z,16.90
2022-10-15T05:09:21.464Z,16.90
2022-10-15T05:13:22.788Z,17.00
2022-10-15T05:17:24.215Z,17.10
2022-10-15T05:21:26.305Z,17.10
2022-10-15T05:25:27.491Z,17.10
2022-10-15T05:29:28.643Z,16.90
2022-10-15T05:33:29.820Z,17.10
2022-10-15T05:37:31.010Z,17.10
2022-10-15T05:41:32.098Z,17.10
2022-10-15T05:45:33.284Z,17.20
2022-10-15T05:49:34.475Z,17.10
2022-10-15T05:53:35.997Z,17.20
2022-10-15T05:57:37.178Z,17.10
2022-10-15T06:01:38.410Z,17.10
2022-10-15T06:05:40.089Z,17.00
2022-10-15T06:09:41.256Z,17.00
2022-10-15T06:13:43.251Z,17.00
2022-10-15T06:17:44.432Z,17.00
2022-10-15T06:21:45.523Z,16.70
2022-10-15T06:25:46.808Z,16.90
2022-10-15T06:29:47.911Z,16.90
2022-10-15T06:33:49.084Z,16.90
2022-10-15T06:37:50.588Z,17.00
2022-10-15T06:41:51.788Z,16.90
2022-10-15T06:45:52.869Z,16.80
2022-10-15T06:49:54.052Z,16.70
2022-10-15T06:53:55.129Z,16.70
2022-10-15T06:57:56.839Z,16.70
2022-10-15T07:01:58.167Z,16.90
2022-10-15T07:06:03.751Z,16.80
2022-10-15T07:10:05.544Z,17.00
2022-10-15T07:14:06.770Z,17.10
2022-10-15T07:18:07.842Z,17.20
2022-10-15T07:22:09.630Z,17.20
2022-10-15T07:26:11.817Z,17.10
2022-10-15T07:30:12.955Z,17.20
2022-10-15T07:34:14.142Z,17.10
2022-10-15T07:38:17.244Z,17.30
2022-10-15T07:42:18.425Z,17.30
2022-10-15T07:46:19.610Z,17.30
2022-10-15T07:50:21.410Z,17.40
2022-10-15T07:54:22.531Z,17.50
2022-10-15T07:58:23.649Z,17.40
2022-10-15T08:02:25.928Z,17.20
2022-10-15T08:06:27.355Z,17.50
2022-10-15T08:10:28.851Z,17.70
2022-10-15T08:14:29.926Z,17.90
2022-10-15T08:18:31.026Z,17.90
2022-10-15T08:22:33.101Z,17.80
2022-10-15T08:26:34.901Z,17.60
2022-10-15T08:30:37.081Z,17.30
2022-10-15T08:34:38.270Z,17.30
2022-10-15T08:38:39.345Z,17.30
2022-10-15T08:42:42.635Z,17.40
2022-10-15T08:46:47.508Z,17.80
2022-10-15T08:51:01.005Z,17.90
2022-10-15T08:55:02.445Z,18.10
2022-10-15T08:59:23.990Z,18.40
2022-10-15T09:03:37.891Z,18.10
2022-10-15T09:07:52.109Z,18.10
2022-10-15T09:11:58.630Z,18.20
2022-10-15T09:16:04.232Z,18.00
2022-10-15T09:20:09.159Z,18.30
2022-10-15T09:24:12.561Z,18.30
2022-10-15T09:28:16.724Z,18.50
2022-10-15T09:32:38.607Z,18.60
2022-10-15T09:36:46.112Z,18.30
2022-10-15T09:41:11.334Z,18.40
2022-10-15T09:45:14.725Z,18.30
2022-10-15T09:49:19.235Z,18.40
2022-10-15T09:53:28.237Z,18.50
2022-10-15T09:57:32.539Z,18.30
2022-10-15T10:01:33.730Z,18.40
2022-10-15T10:05:36.618Z,18.30
2022-10-15T10:09:40.814Z,18.40
2022-10-15T10:14:00.128Z,18.70
2022-10-15T10:18:01.849Z,19.00
2022-10-15T10:22:18.616Z,19.00
2022-10-15T10:26:20.119Z,18.90
2022-10-15T10:30:22.016Z,18.60
2022-10-15T10:34:28.839Z,18.50
2022-10-15T10:38:36.759Z,18.60
2022-10-15T10:42:38.160Z,18.60
2022-10-15T10:46:39.325Z,18.30
2022-10-15T10:50:40.912Z,18.00
2022-10-15T10:58:43.123Z,18.00
2022-10-15T11:02:44.418Z,17.80
2022-10-15T11:06:55.347Z,17.80
2022-10-15T11:11:11.858Z,18.00
2022-10-15T11:15:28.416Z,18.10
2022-10-15T11:19:59.818Z,18.10
2022-10-15T11:23:57.739Z,18.30
2022-10-15T11:28:18.093Z,18.50
2022-10-15T11:32:54.567Z,19.00
2022-10-15T11:36:50.907Z,19.00
2022-10-15T11:41:19.091Z,19.00
2022-10-15T11:45:38.890Z,19.30
2022-10-15T11:50:06.686Z,19.20
2022-10-15T11:54:14.894Z,19.00
2022-10-15T11:58:35.123Z,18.90
2022-10-15T12:02:38.109Z,18.60
2022-10-15T12:06:43.408Z,18.50
2022-10-15T12:11:17.162Z,18.70
2022-10-15T12:15:31.182Z,18.60
2022-10-15T12:19:45.497Z,18.70
2022-10-15T12:23:46.695Z,18.70
2022-10-15T12:27:51.691Z,18.80
2022-10-15T12:31:55.790Z,18.80
2022-10-15T12:36:09.922Z,18.90
2022-10-15T12:40:27.537Z,18.80
2022-10-15T12:44:31.241Z,18.70
2022-10-15T12:48:38.983Z,18.70
2022-10-15T12:53:04.160Z,18.90
2022-10-15T12:57:33.868Z,18.90
2022-10-15T13:01:45.215Z,18.70
2022-10-15T13:05:47.891Z,18.70
2022-10-15T13:09:49.693Z,18.70
2022-10-15T13:13:54.616Z,18.70
2022-10-15T13:17:58.709Z,18.50
2022-10-15T13:22:05.286Z,18.50
2022-10-15T13:26:18.570Z,18.50
2022-10-15T13:30:19.890Z,18.60
2022-10-15T13:34:33.797Z,18.50
2022-10-15T13:38:37.979Z,18.40
2022-10-15T13:42:42.968Z,18.60
2022-10-15T13:46:44.185Z,18.60
2022-10-15T13:50:47.075Z,18.60
2022-10-15T13:54:48.288Z,18.50
2022-10-15T13:58:50.090Z,18.50
2022-10-15T14:03:14.057Z,18.40
2022-10-15T14:07:27.138Z,18.40
2022-10-15T14:11:29.854Z,18.30
2022-10-15T14:15:40.239Z,18.30
2022-10-15T14:19:54.535Z,18.30
2022-10-15T14:23:50.735Z,18.50
2022-10-15T14:27:52.429Z,18.10
2022-10-15T14:31:53.723Z,17.90
2022-10-15T14:36:19.943Z,18.10
2022-10-15T14:40:21.136Z,18.00
2022-10-15T14:44:22.318Z,18.10
2022-10-15T14:48:29.856Z,18.20
2022-10-15T14:56:34.795Z,18.30
2022-10-15T15:00:42.246Z,18.30
2022-10-15T15:04:47.503Z,18.30
2022-10-15T15:08:48.790Z,18.20
2022-10-15T15:12:53.120Z,18.10
2022-10-15T15:16:54.338Z,18.20
2022-10-15T15:20:59.382Z,18.20
2022-10-15T15:25:04.110Z,18.10
2022-10-15T15:29:13.756Z,18.10
2022-10-15T15:33:15.882Z,18.10
2022-10-15T15:37:22.502Z,18.10
2022-10-15T15:41:25.000Z,18.10
2022-10-15T15:45:27.516Z,18.20
2022-10-15T15:49:28.870Z,18.30
2022-10-15T15:53:30.540Z,18.20
2022-10-15T15:57:32.186Z,18.30
2022-10-15T16:01:33.441Z,18.10
2022-10-15T16:05:34.673Z,18.00
2022-10-15T16:09:36.403Z,18.00
2022-10-15T16:13:37.643Z,18.00
2022-10-15T16:17:38.894Z,18.00
2022-10-15T16:21:40.460Z,18.20
2022-10-15T16:25:41.955Z,18.20
2022-10-15T16:29:43.167Z,18.20
2022-10-15T16:33:44.835Z,18.10
2022-10-15T16:37:46.140Z,18.10
2022-10-15T16:41:47.306Z,18.00
2022-10-15T16:45:56.185Z,17.90
2022-10-15T16:49:57.421Z,17.80
2022-10-15T16:53:58.601Z,17.90
2022-10-15T16:57:59.733Z,18.00
2022-10-15T17:02:00.972Z,18.00
2022-10-15T17:06:05.555Z,18.00
2022-10-15T17:10:10.842Z,17.90
2022-10-15T17:14:14.342Z,17.80
2022-10-15T17:18:15.520Z,17.80
2022-10-15T17:22:16.698Z,17.80
2022-10-15T17:26:21.406Z,17.90
2022-10-15T17:30:22.669Z,17.90
2022-10-15T17:34:25.171Z,18.00
2022-10-15T17:38:26.394Z,18.10
2022-10-15T17:42:27.723Z,18.10
2022-10-15T17:46:30.184Z,17.90
2022-10-15T17:50:31.370Z,18.10
2022-10-15T17:54:32.583Z,18.00
2022-10-15T17:58:33.754Z,18.00
2022-10-15T18:02:34.993Z,18.00
2022-10-15T18:06:36.133Z,17.90
2022-10-15T18:10:37.329Z,17.90
2022-10-15T18:14:38.432Z,17.90
2022-10-15T18:18:39.643Z,17.90
2022-10-15T18:22:41.153Z,17.90
2022-10-15T18:26:43.350Z,18.10
2022-10-15T18:30:44.552Z,18.00
2022-10-15T18:34:45.743Z,18.00
2022-10-15T18:38:46.915Z,18.00
2022-10-15T18:42:48.114Z,18.00
2022-10-15T18:46:50.497Z,17.90
2022-10-15T18:50:53.575Z,17.90
2022-10-15T18:54:54.668Z,17.90
2022-10-15T18:58:56.067Z,17.90
2022-10-15T19:02:57.160Z,18.00
2022-10-15T19:07:00.263Z,17.90
2022-10-15T19:11:05.991Z,17.90
2022-10-15T19:15:08.380Z,17.90
2022-10-15T19:19:12.275Z,17.70
2022-10-15T19:23:13.468Z,17.70
2022-10-15T19:27:14.684Z,17.70
2022-10-15T19:31:19.674Z,17.70
2022-10-15T19:35:21.068Z,17.80
2022-10-15T19:39:23.282Z,17.80
2022-10-15T19:43:24.598Z,17.80
2022-10-15T19:47:26.020Z,17.70
2022-10-15T19:51:27.726Z,17.90
2022-10-15T19:55:28.902Z,17.70
2022-10-15T19:59:30.209Z,17.60
2022-10-15T20:03:32.097Z,17.80
2022-10-15T20:07:33.601Z,17.70
2022-10-15T20:11:35.975Z,17.90
2022-10-15T20:15:44.331Z,17.90
2022-10-15T20:19:47.159Z,17.80
2022-10-15T20:23:48.316Z,18.00
2022-10-15T20:27:49.580Z,17.90
2022-10-15T20:31:51.395Z,17.90
2022-10-15T20:35:52.577Z,18.00
2022-10-15T20:39:53.817Z,17.90
2022-10-15T20:43:56.064Z,17.80
2022-10-15T20:47:57.871Z,17.80
2022-10-15T20:51:59.145Z,17.70
2022-10-15T20:56:00.925Z,17.80
2022-10-15T21:00:03.567Z,17.70
2022-10-15T21:04:05.162Z,17.30
2022-10-15T21:08:06.359Z,17.20
2022-10-15T21:12:09.386Z,17.30
2022-10-15T21:16:10.713Z,17.20
2022-10-15T21:20:11.880Z,17.10
2022-10-15T21:24:14.060Z,17.10
2022-10-15T21:28:15.354Z,17.10
2022-10-15T21:32:16.461Z,17.30
2022-10-15T21:36:24.297Z,17.20
2022-10-15T21:40:25.507Z,17.10
2022-10-15T21:44:27.097Z,17.10
2022-10-15T21:48:28.353Z,17.20
2022-10-15T21:52:29.858Z,17.00
2022-10-15T21:56:31.185Z,17.10
2022-10-15T22:00:32.357Z,17.20
2022-10-15T22:04:34.360Z,17.20
2022-10-15T22:08:36.045Z,17.10
2022-10-15T22:12:37.324Z,17.00
2022-10-15T22:16:40.123Z,17.10
2022-10-15T22:24:42.405Z,17.20
2022-10-15T22:28:44.309Z,17.10
2022-10-15T22:32:45.446Z,17.20
2022-10-15T22:36:47.016Z,17.20
2022-10-15T22:40:53.998Z,17.40
2022-10-15T22:44:55.093Z,17.60
2022-10-15T22:48:56.370Z,17.60
2022-10-15T22:52:57.458Z,17.60
2022-10-15T22:56:58.745Z,17.70
2022-10-15T23:01:24.614Z,17.70
2022-10-15T23:05:26.050Z,17.60
2022-10-15T23:09:29.627Z,17.60
2022-10-15T23:13:31.192Z,17.70
2022-10-15T23:17:32.698Z,17.70
2022-10-15T23:21:46.646Z,17.50
2022-10-15T23:25:47.877Z,17.50
2022-10-15T23:29:56.878Z,17.40
2022-10-15T23:33:53.257Z,17.40
2022-10-15T23:37:54.438Z,17.30
2022-10-15T23:41:55.626Z,17.30
2022-10-15T23:45:57.814Z,17.40
2022-10-15T23:49:58.920Z,17.30
2022-10-15T23:54:01.509Z,17.30
2022-10-15T23:58:02.698Z,17.40
